Time;durP1;ratioP1;P1;durP2;ratioP2;P2;SDS_P1;SDS_P2;PMS_P1;PMS_P2;Temp;Humidity;BMP_temperature;BMP_pressure;BME280_temperature;BME280_humidity;BME280_pressure;Samples;Min_cycle;Max_cycle;Signal;HPM_P1;HPM_P2
2023/04/02 00:01:51;;;;;;;0.60;0.20;;;;;;;7.48;100.00;97933.06;4987954;28;20697;-58
2023/04/02 00:04:25;;;;;;;0.60;0.30;;;;;;;7.44;100.00;97935.13;4984817;28;20232;-59
2023/04/02 00:07:20;;;;;;;0.73;0.30;;;;;;;7.45;100.00;97926.38;4985941;28;20839;-59
2023/04/02 00:09:46;;;;;;;1.23;0.27;;;;;;;7.43;100.00;97930.91;4986128;28;20225;-59
2023/04/02 00:12:17;;;;;;;0.93;0.20;;;;;;;7.38;100.00;97936.56;4989771;28;20222;-60
2023/04/02 00:14:53;;;;;;;0.50;0.30;;;;;;;7.39;100.00;97937.38;4989665;28;20297;-59
2023/04/02 00:17:24;;;;;;;0.20;0.20;;;;;;;7.39;100.00;97945.97;4982774;28;20299;-57
2023/04/02 00:19:56;;;;;;;0.93;0.30;;;;;;;7.39;100.00;97942.59;4991390;28;20240;-59
2023/04/02 00:22:28;;;;;;;1.03;0.30;;;;;;;7.36;100.00;97948.88;4979509;28;20238;-60
2023/04/02 00:24:56;;;;;;;0.50;0.37;;;;;;;7.36;100.00;97948.06;4983573;28;20230;-58
2023/04/02 00:27:23;;;;;;;0.50;0.30;;;;;;;7.36;100.00;97954.06;4984293;28;20239;-58
2023/04/02 00:29:52;;;;;;;1.47;0.20;;;;;;;7.39;100.00;97945.19;4988430;28;20241;-57
2023/04/02 00:32:22;;;;;;;0.63;0.40;;;;;;;7.47;100.00;97954.81;4980247;28;20237;-58
2023/04/02 00:34:49;;;;;;;1.00;0.20;;;;;;;7.46;100.00;97948.00;4990378;28;20231;-58
2023/04/02 00:37:22;;;;;;;2.00;0.30;;;;;;;7.45;100.00;97952.34;4981181;28;20689;-57
2023/04/02 00:39:56;;;;;;;3.03;0.50;;;;;;;7.47;100.00;97953.03;4991005;28;20291;-58
2023/04/02 00:42:24;;;;;;;1.03;0.27;;;;;;;7.52;100.00;97937.00;4986160;28;20245;-58
2023/04/02 00:44:53;;;;;;;0.73;0.30;;;;;;;7.50;100.00;97951.94;4985893;28;20240;-59
2023/04/02 00:47:21;;;;;;;1.33;0.30;;;;;;;7.49;100.00;97948.50;4976000;28;20232;-58
2023/04/02 00:49:54;;;;;;;0.60;0.30;;;;;;;7.52;100.00;97953.41;4982743;28;20229;-59
2023/04/02 00:52:23;;;;;;;0.90;0.30;;;;;;;7.49;100.00;97943.31;4984917;28;20243;-58
2023/04/02 00:54:58;;;;;;;0.67;0.30;;;;;;;7.55;100.00;97941.91;4990231;28;20236;-59
2023/04/02 00:57:26;;;;;;;0.97;0.40;;;;;;;7.52;100.00;97945.59;4985047;28;20237;-59
2023/04/02 00:59:58;;;;;;;0.70;0.40;;;;;;;7.45;100.00;97949.75;4988573;28;20238;-58
2023/04/02 01:02:28;;;;;;;1.40;0.53;;;;;;;7.48;100.00;97949.47;4990697;28;20776;-59
2023/04/02 01:04:56;;;;;;;3.77;0.50;;;;;;;7.46;100.00;97950.59;4984715;28;20267;-58
2023/04/02 01:07:38;;;;;;;1.73;0.50;;;;;;;7.50;100.00;97960.50;4994411;28;20248;-57
2023/04/02 01:10:18;;;;;;;0.83;0.40;;;;;;;7.45;100.00;97959.34;4989387;28;20237;-58
2023/04/02 01:12:55;;;;;;;1.00;0.40;;;;;;;7.46;100.00;97971.38;4989411;28;20232;-59
2023/04/02 01:15:28;;;;;;;2.00;0.50;;;;;;;7.42;100.00;97957.84;4991503;28;20573;-59
2023/04/02 01:18:12;;;;;;;0.83;0.50;;;;;;;7.45;100.00;97962.75;4976981;28;20605;-58
2023/04/02 01:20:57;;;;;;;1.67;0.40;;;;;;;7.43;100.00;97961.25;4987130;28;20241;-59
2023/04/02 01:23:33;;;;;;;1.60;0.50;;;;;;;7.44;100.00;97960.31;4989474;28;20733;-59
2023/04/02 01:26:08;;;;;;;2.50;0.63;;;;;;;7.47;100.00;97960.81;4994885;28;20726;-59
2023/04/02 01:28:51;;;;;;;1.20;0.50;;;;;;;7.44;100.00;97974.09;4990689;28;20272;-59
2023/04/02 01:31:18;;;;;;;2.50;0.40;;;;;;;7.46;100.00;97966.16;4991816;28;20233;-58
2023/04/02 01:33:45;;;;;;;1.63;0.50;;;;;;;7.47;100.00;97960.00;4992376;28;20237;-61
2023/04/02 01:36:21;;;;;;;0.70;0.40;;;;;;;7.49;100.00;97960.69;4992828;28;20308;-59
2023/04/02 01:38:58;;;;;;;3.23;0.40;;;;;;;7.50;100.00;97962.31;4995768;28;20276;-58
2023/04/02 01:41:33;;;;;;;1.00;0.50;;;;;;;7.49;100.00;97964.06;4997122;28;20579;-59
2023/04/02 01:44:07;;;;;;;1.80;0.70;;;;;;;7.52;100.00;97970.78;4989024;28;20587;-59
2023/04/02 01:46:38;;;;;;;1.83;0.40;;;;;;;7.51;100.00;97963.94;4993399;28;20891;-57
2023/04/02 01:49:13;;;;;;;2.53;0.30;;;;;;;7.50;100.00;97963.13;4986997;28;20242;-59
2023/04/02 01:51:44;;;;;;;1.43;0.40;;;;;;;7.54;100.00;97977.44;4992885;28;20288;-59
2023/04/02 01:54:15;;;;;;;2.27;0.50;;;;;;;7.52;100.00;97971.56;4994950;28;20264;-59
2023/04/02 01:56:43;;;;;;;1.70;0.50;;;;;;;7.54;100.00;97974.84;4989437;28;20588;-59
2023/04/02 01:59:12;;;;;;;1.00;0.40;;;;;;;7.54;100.00;97968.84;4987527;28;20225;-59
2023/04/02 02:01:46;;;;;;;1.20;0.60;;;;;;;7.54;100.00;97976.63;4991864;28;20316;-59
2023/04/02 02:04:14;;;;;;;2.23;0.50;;;;;;;7.53;100.00;97973.22;4989959;28;20234;-59
2023/04/02 02:06:41;;;;;;;0.97;0.50;;;;;;;7.59;100.00;97979.59;4992224;28;20221;-58
2023/04/02 02:09:14;;;;;;;1.43;0.50;;;;;;;7.59;100.00;97983.97;4985697;28;20226;-59
2023/04/02 02:11:41;;;;;;;0.93;0.43;;;;;;;7.58;100.00;97988.38;4995213;28;20309;-59
2023/04/02 02:14:14;;;;;;;2.07;0.40;;;;;;;7.57;100.00;97994.53;4990899;28;20235;-58
2023/04/02 02:16:41;;;;;;;2.57;0.60;;;;;;;7.53;100.00;97991.38;4994696;28;20314;-58
2023/04/02 02:19:19;;;;;;;1.07;0.50;;;;;;;7.53;100.00;97988.78;4987269;28;20268;-58
2023/04/02 02:21:50;;;;;;;1.37;0.57;;;;;;;7.51;100.00;97997.72;4987475;28;20237;-58
2023/04/02 02:24:20;;;;;;;1.47;0.50;;;;;;;7.46;100.00;97997.31;4989113;28;20230;-58
2023/04/02 02:26:51;;;;;;;0.67;0.40;;;;;;;7.46;100.00;98000.72;4990644;28;20234;-59
2023/04/02 02:29:20;;;;;;;1.17;0.50;;;;;;;7.45;100.00;98001.69;4983488;28;20225;-58
2023/04/02 02:31:52;;;;;;;3.40;0.43;;;;;;;7.39;100.00;98010.88;4971017;28;20241;-56
2023/04/02 02:34:24;;;;;;;1.13;0.40;;;;;;;7.33;100.00;98010.66;4984639;28;20782;-59
2023/04/02 02:36:55;;;;;;;1.63;0.50;;;;;;;7.28;100.00;98011.09;4980211;28;20240;-58
2023/04/02 02:39:26;;;;;;;2.53;0.50;;;;;;;7.29;100.00;98017.91;4988156;28;20703;-59
2023/04/02 02:41:57;;;;;;;1.33;0.60;;;;;;;7.22;100.00;98020.28;4978369;28;20234;-59
2023/04/02 02:44:29;;;;;;;2.47;0.70;;;;;;;7.24;100.00;98018.38;4987295;28;20252;-58
2023/04/02 02:47:01;;;;;;;0.87;0.40;;;;;;;7.21;100.00;98021.25;4987406;28;20225;-59
2023/04/02 02:49:31;;;;;;;2.43;0.80;;;;;;;7.16;100.00;98026.06;4990891;28;20257;-59
2023/04/02 02:52:06;;;;;;;1.13;0.50;;;;;;;7.16;100.00;98023.47;4987981;28;20267;-58
2023/04/02 02:54:44;;;;;;;1.23;0.60;;;;;;;7.19;100.00;98024.94;5007408;28;20233;-58
2023/04/02 02:57:17;;;;;;;0.90;0.50;;;;;;;7.20;100.00;98018.78;4982784;28;20227;-58
2023/04/02 02:59:46;;;;;;;1.03;0.33;;;;;;;7.20;100.00;98029.16;4993914;28;20238;-59
2023/04/02 03:02:15;;;;;;;2.47;0.60;;;;;;;7.23;100.00;98029.72;4988652;28;20222;-57
2023/04/02 03:04:47;;;;;;;1.20;0.40;;;;;;;7.21;100.00;98031.63;4986516;28;20234;-59
2023/04/02 03:07:18;;;;;;;1.00;0.60;;;;;;;7.22;100.00;98029.84;4982535;28;20256;-58
2023/04/02 03:09:53;;;;;;;1.77;0.53;;;;;;;7.21;100.00;98033.41;4994158;28;20576;-59
2023/04/02 03:12:32;;;;;;;3.93;1.03;;;;;;;7.22;100.00;98035.03;4986302;28;20230;-59
2023/04/02 03:15:06;;;;;;;1.77;0.57;;;;;;;7.24;100.00;98040.91;5005565;28;20225;-59
2023/04/02 03:17:37;;;;;;;4.93;0.77;;;;;;;7.21;100.00;98034.22;4986284;28;20232;-59
2023/04/02 03:20:13;;;;;;;2.93;0.87;;;;;;;7.21;100.00;98041.19;4977294;28;20237;-57
2023/04/02 03:22:46;;;;;;;1.40;0.73;;;;;;;7.23;100.00;98045.28;4974981;28;20260;-59
2023/04/02 03:25:24;;;;;;;1.73;0.60;;;;;;;7.25;100.00;98047.72;4974504;28;20706;-58
2023/04/02 03:27:59;;;;;;;2.10;0.40;;;;;;;7.23;100.00;98040.09;4987270;28;20225;-59
2023/04/02 03:33:15;;;;;;;0.80;0.60;;;;;;;7.20;100.00;98042.97;5017018;23;20785;-59
2023/04/02 03:35:46;;;;;;;1.77;0.50;;;;;;;7.22;100.00;98045.41;5005502;28;20237;-59
2023/04/02 03:38:18;;;;;;;1.40;0.50;;;;;;;7.21;100.00;98048.97;5017714;28;20227;-59
2023/04/02 03:40:55;;;;;;;1.00;0.70;;;;;;;7.19;100.00;98051.72;5010668;28;20233;-59
2023/04/02 03:43:26;;;;;;;3.07;0.70;;;;;;;7.21;100.00;98051.56;5005122;28;20688;-59
2023/04/02 03:46:02;;;;;;;2.33;0.60;;;;;;;7.19;100.00;98049.13;5006008;28;20236;-59
2023/04/02 03:48:38;;;;;;;0.77;0.50;;;;;;;7.21;100.00;98048.97;5005972;28;20236;-60
2023/04/02 03:51:11;;;;;;;1.63;0.70;;;;;;;7.22;100.00;98059.22;5006234;28;20243;-59
2023/04/02 03:53:37;;;;;;;1.97;0.50;;;;;;;7.24;100.00;98056.47;5005625;28;20713;-60
2023/04/02 03:56:06;;;;;;;1.00;0.50;;;;;;;7.26;100.00;98056.34;5002503;28;20243;-60
2023/04/02 03:58:39;;;;;;;0.87;0.40;;;;;;;7.25;100.00;98058.09;4994648;28;20247;-59
2023/04/02 04:01:16;;;;;;;0.83;0.43;;;;;;;7.23;100.00;98058.25;5004806;28;20259;-59
2023/04/02 04:03:49;;;;;;;1.23;0.40;;;;;;;7.27;100.00;98058.78;5010607;28;20314;-58
2023/04/02 04:06:21;;;;;;;1.10;0.40;;;;;;;7.25;100.00;98068.50;4991037;28;20242;-59
2023/04/02 04:08:53;;;;;;;0.70;0.40;;;;;;;7.25;100.00;98071.09;5006220;28;20228;-60
2023/04/02 04:11:26;;;;;;;3.23;0.60;;;;;;;7.24;100.00;98069.44;5004499;28;20243;-59
2023/04/02 04:13:59;;;;;;;2.87;0.50;;;;;;;7.26;100.00;98067.53;4992942;28;20243;-60
2023/04/02 04:16:32;;;;;;;0.67;0.37;;;;;;;7.24;100.00;98075.47;5002087;28;20307;-60
2023/04/02 04:19:05;;;;;;;0.93;0.40;;;;;;;7.28;100.00;98070.78;5003271;28;20235;-59
2023/04/02 04:21:36;;;;;;;0.70;0.37;;;;;;;7.26;100.00;98083.09;4993830;28;20258;-58
2023/04/02 04:24:19;;;;;;;2.50;0.43;;;;;;;7.31;100.00;98082.69;4990155;28;20236;-58
2023/04/02 04:26:52;;;;;;;2.23;0.60;;;;;;;7.30;100.00;98094.03;4995127;28;20239;-60
2023/04/02 04:29:33;;;;;;;0.60;0.50;;;;;;;7.34;100.00;98085.00;5001626;28;20311;-59
2023/04/02 04:32:15;;;;;;;1.20;0.57;;;;;;;7.31;100.00;98096.47;4988869;28;20331;-62
2023/04/02 04:34:52;;;;;;;2.00;0.47;;;;;;;7.31;100.00;98093.06;4992967;28;20237;-60
2023/04/02 04:37:25;;;;;;;2.20;0.43;;;;;;;7.35;100.00;98099.63;5001435;28;20691;-61
2023/04/02 04:39:57;;;;;;;1.87;0.50;;;;;;;7.33;100.00;98099.75;5001839;28;20355;-61
2023/04/02 04:42:27;;;;;;;10.13;5.30;;;;;;;7.33;100.00;98091.97;5000140;28;20315;-60
2023/04/02 04:45:00;;;;;;;1.50;0.80;;;;;;;7.41;100.00;98106.84;5009493;28;20716;-62
2023/04/02 04:47:30;;;;;;;0.93;0.40;;;;;;;7.41;100.00;98098.22;5005125;28;20233;-61
2023/04/02 04:50:07;;;;;;;2.17;0.50;;;;;;;7.42;100.00;98107.63;5000169;28;20228;-62
2023/04/02 04:52:40;;;;;;;2.10;1.50;;;;;;;7.41;100.00;98109.44;5003450;28;20355;-61
2023/04/02 04:55:27;;;;;;;1.07;0.67;;;;;;;7.42;100.00;98112.84;4999415;28;20213;-62
2023/04/02 04:58:00;;;;;;;1.17;0.80;;;;;;;7.46;100.00;98114.19;5000719;28;20244;-61
2023/04/02 05:00:40;;;;;;;0.80;0.47;;;;;;;7.43;100.00;98114.47;5033129;28;20235;-63
2023/04/02 05:03:17;;;;;;;1.30;0.80;;;;;;;7.43;100.00;98125.66;4989894;28;20232;-61
2023/04/02 05:05:46;;;;;;;2.97;0.80;;;;;;;7.44;100.00;98121.28;5019728;28;20750;-61
2023/04/02 05:08:21;;;;;;;4.10;0.60;;;;;;;7.45;100.00;98128.94;5002729;28;20232;-61
2023/04/02 05:10:51;;;;;;;1.27;0.80;;;;;;;7.51;100.00;98130.16;4991000;28;20282;-60
2023/04/02 05:13:24;;;;;;;2.10;0.60;;;;;;;7.51;100.00;98132.75;4987791;28;20323;-59
2023/04/02 05:16:01;;;;;;;2.43;0.67;;;;;;;7.53;100.00;98130.81;4989783;28;20244;-65
2023/04/02 05:18:34;;;;;;;1.27;0.80;;;;;;;7.50;100.00;98139.72;4991374;28;20219;-62
2023/04/02 05:21:08;;;;;;;1.10;0.80;;;;;;;7.52;100.00;98148.19;4998162;28;20268;-60
2023/04/02 05:23:44;;;;;;;3.40;1.40;;;;;;;7.53;100.00;98152.41;4990354;28;20229;-60
2023/04/02 05:26:16;;;;;;;2.20;0.97;;;;;;;7.53;100.00;98146.41;4999531;28;20554;-58
2023/04/02 05:28:48;;;;;;;1.30;0.80;;;;;;;7.51;100.00;98150.94;5003933;28;20224;-60
2023/04/02 05:31:20;;;;;;;2.93;0.67;;;;;;;7.51;100.00;98156.94;4999294;28;20635;-60
2023/04/02 05:33:50;;;;;;;0.73;0.57;;;;;;;7.51;100.00;98159.53;5008709;28;20228;-59
2023/04/02 05:36:22;;;;;;;1.93;0.83;;;;;;;7.56;100.00;98163.47;4987673;28;20237;-60
2023/04/02 05:38:56;;;;;;;2.57;0.97;;;;;;;7.55;100.00;98154.88;4989929;28;20287;-60
2023/04/02 05:41:35;;;;;;;1.23;0.83;;;;;;;7.63;100.00;98167.13;4997391;28;20237;-61
2023/04/02 05:44:07;;;;;;;2.27;1.23;;;;;;;7.61;100.00;98169.06;4999934;28;20236;-60
2023/04/02 05:46:37;;;;;;;107.30;73.20;;;;;;;7.65;100.00;98168.66;5007544;28;20314;-61
2023/04/02 05:49:09;;;;;;;23.27;13.43;;;;;;;7.64;100.00;98176.56;4988943;28;20316;-60
2023/04/02 05:51:43;;;;;;;4.83;2.33;;;;;;;7.66;100.00;98179.84;5011188;28;20248;-60
2023/04/02 05:54:22;;;;;;;3.30;1.70;;;;;;;7.68;100.00;98183.94;5003057;28;20793;-61
2023/04/02 05:56:56;;;;;;;2.37;0.80;;;;;;;7.73;100.00;98193.09;5006523;28;20336;-60
2023/04/02 05:59:28;;;;;;;3.23;0.77;;;;;;;7.77;100.00;98191.84;5006781;28;20240;-61
2023/04/02 06:02:02;;;;;;;0.93;0.50;;;;;;;7.88;100.00;98190.81;5003435;28;20232;-61
2023/04/02 06:04:42;;;;;;;5.93;5.43;;;;;;;7.93;100.00;98199.84;5022848;28;20239;-61
2023/04/02 06:07:16;;;;;;;3.47;1.27;;;;;;;7.95;100.00;98202.28;5003781;28;20232;-61
2023/04/02 06:09:51;;;;;;;1.43;1.07;;;;;;;7.94;100.00;98208.44;5006358;28;20232;-62
2023/04/02 06:12:25;;;;;;;3.00;0.83;;;;;;;7.98;100.00;98209.78;5003811;28;20237;-61
2023/04/02 06:14:52;;;;;;;1.40;1.00;;;;;;;7.99;100.00;98211.44;5008224;28;20312;-60
2023/04/02 06:17:21;;;;;;;3.53;0.90;;;;;;;7.97;100.00;98219.34;5004614;28;20228;-61
2023/04/02 06:19:49;;;;;;;1.57;1.07;;;;;;;8.07;100.00;98224.53;5008219;28;20238;-62
2023/04/02 06:22:27;;;;;;;1.53;0.50;;;;;;;8.11;100.00;98217.25;5005257;28;22072;-62
2023/04/02 06:25:01;;;;;;;2.83;0.80;;;;;;;8.03;100.00;98225.78;4991692;28;20237;-61
2023/04/02 06:27:30;;;;;;;3.03;1.00;;;;;;;8.11;100.00;98228.47;5005983;28;20683;-60
2023/04/02 06:30:02;;;;;;;1.87;0.70;;;;;;;8.16;100.00;98228.03;4989463;28;20257;-61
2023/04/02 06:32:31;;;;;;;2.17;1.67;;;;;;;8.23;100.00;98230.88;5009494;28;20241;-62
2023/04/02 06:34:58;;;;;;;11.13;9.63;;;;;;;8.36;100.00;98233.94;5003401;28;20226;-61
2023/04/02 06:37:31;;;;;;;8.67;7.73;;;;;;;8.44;100.00;98238.41;5006385;28;20231;-60
2023/04/02 06:40:28;;;;;;;3.83;2.30;;;;;;;8.50;100.00;98234.41;5012621;28;20238;-61
2023/04/02 06:42:58;;;;;;;1.00;0.60;;;;;;;8.54;100.00;98248.75;5003050;28;20237;-61
2023/04/02 06:45:40;;;;;;;1.40;0.87;;;;;;;8.62;100.00;98251.44;5024528;28;20331;-62
2023/04/02 06:48:18;;;;;;;0.80;0.70;;;;;;;8.50;100.00;98256.06;5019792;28;20333;-60
2023/04/02 06:50:49;;;;;;;1.83;0.67;;;;;;;8.60;100.00;98263.00;5010870;28;20728;-61
2023/04/02 06:53:23;;;;;;;3.10;1.50;;;;;;;8.56;100.00;98260.69;5002274;28;20692;-61
2023/04/02 06:55:56;;;;;;;3.53;1.03;;;;;;;8.57;100.00;98264.91;5004555;28;20727;-60
2023/04/02 06:58:27;;;;;;;1.87;0.70;;;;;;;8.72;100.00;98274.81;4992296;28;20296;-61
2023/04/02 07:00:55;;;;;;;5.80;3.30;;;;;;;8.75;100.00;98282.34;5006367;28;20229;-58
2023/04/02 07:03:31;;;;;;;2.70;1.83;;;;;;;8.81;100.00;98281.75;5001310;28;21020;-61
2023/04/02 07:06:03;;;;;;;57.33;39.10;;;;;;;8.88;100.00;98281.97;5000980;28;20238;-60
2023/04/02 07:08:34;;;;;;;5.33;4.20;;;;;;;8.93;100.00;98289.34;5006727;28;20225;-61
2023/04/02 07:11:01;;;;;;;0.90;0.40;;;;;;;8.91;99.70;98296.47;5002779;28;20276;-61
2023/04/02 07:13:28;;;;;;;1.27;0.60;;;;;;;9.05;100.00;98298.53;5005792;28;20225;-60
2023/04/02 07:15:56;;;;;;;1.77;0.80;;;;;;;9.06;99.82;98296.75;5006590;28;20283;-60
2023/04/02 07:18:26;;;;;;;3.03;1.93;;;;;;;9.25;98.90;98299.22;5004955;28;20242;-60
2023/04/02 07:20:53;;;;;;;5.30;0.77;;;;;;;9.37;95.29;98309.41;5004911;28;20737;-60
2023/04/02 07:23:20;;;;;;;0.50;0.40;;;;;;;9.30;97.04;98312.59;4997916;28;20228;-61
2023/04/02 07:25:49;;;;;;;384.33;188.60;;;;;;;9.29;98.47;98315.34;4990425;28;20261;-60
2023/04/02 07:28:16;;;;;;;6.23;4.40;;;;;;;9.43;92.63;98317.41;5002888;28;20248;-60
2023/04/02 07:30:43;;;;;;;2.40;1.20;;;;;;;9.41;93.44;98323.75;5006818;28;20307;-61
2023/04/02 07:33:13;;;;;;;0.90;0.67;;;;;;;9.43;94.40;98327.03;5005463;28;20228;-59
2023/04/02 07:35:41;;;;;;;7.40;4.50;;;;;;;9.47;94.13;98327.53;4992604;28;20642;-61
2023/04/02 07:38:07;;;;;;;2.97;1.90;;;;;;;9.55;96.61;98331.00;5003459;28;20236;-61
2023/04/02 07:40:34;;;;;;;1.80;0.93;;;;;;;9.71;96.93;98335.53;5006592;28;20225;-61
2023/04/02 07:43:02;;;;;;;2.30;1.73;;;;;;;9.87;95.80;98340.03;5004153;28;20234;-61
2023/04/02 07:45:29;;;;;;;3.70;1.50;;;;;;;9.85;94.95;98334.16;5008031;28;20230;-61
2023/04/02 07:47:56;;;;;;;2.20;1.57;;;;;;;9.93;95.37;98343.84;5008295;28;20236;-61
2023/04/02 07:50:23;;;;;;;10.53;8.37;;;;;;;9.96;93.89;98347.91;5004313;28;20229;-63
2023/04/02 07:52:50;;;;;;;11.83;10.63;;;;;;;9.92;93.66;98347.41;5006672;28;20298;-61
2023/04/02 07:55:17;;;;;;;1.57;1.43;;;;;;;9.96;93.33;98355.72;5005043;28;20304;-61
2023/04/02 07:57:49;;;;;;;3.17;2.03;;;;;;;10.10;92.65;98363.00;5006615;28;20303;-61
2023/04/02 08:00:19;;;;;;;2.90;1.77;;;;;;;10.19;93.33;98363.84;5001616;28;20240;-60
2023/04/02 08:02:46;;;;;;;2.30;1.30;;;;;;;10.30;94.69;98363.56;5006730;28;20226;-61
2023/04/02 08:05:13;;;;;;;1.17;1.07;;;;;;;10.28;93.34;98370.75;5003545;28;20230;-60
2023/04/02 08:07:40;;;;;;;3.27;2.30;;;;;;;10.34;92.83;98369.31;5006684;28;20292;-61
2023/04/02 08:10:08;;;;;;;1.60;1.20;;;;;;;10.53;92.95;98376.09;5000658;28;20222;-61
2023/04/02 08:12:35;;;;;;;3.10;1.47;;;;;;;10.70;91.23;98378.78;5004832;28;20238;-61
2023/04/02 08:15:02;;;;;;;1.90;1.40;;;;;;;10.93;89.36;98371.19;5001265;28;20282;-62
2023/04/02 08:17:30;;;;;;;1.93;1.23;;;;;;;11.04;90.64;98383.94;4995902;28;20614;-61
2023/04/02 08:19:59;;;;;;;2.00;1.80;;;;;;;11.18;87.45;98379.06;4985467;28;20230;-61
2023/04/02 08:22:26;;;;;;;1.30;0.87;;;;;;;11.30;86.33;98382.19;5008452;28;20594;-61
2023/04/02 08:24:53;;;;;;;2.47;1.00;;;;;;;11.44;84.74;98385.97;5006830;28;20820;-61
2023/04/02 08:27:19;;;;;;;2.30;1.20;;;;;;;11.60;82.71;98388.59;5003654;28;20243;-61
2023/04/02 08:29:46;;;;;;;1.50;1.00;;;;;;;11.69;80.52;98399.88;5005395;28;20239;-61
2023/04/02 08:32:15;;;;;;;1.93;0.80;;;;;;;11.45;83.39;98401.47;5003370;28;20247;-61
2023/04/02 08:34:43;;;;;;;1.53;0.60;;;;;;;11.31;82.45;98404.72;5003501;28;20236;-62
2023/04/02 08:37:11;;;;;;;1.10;0.80;;;;;;;11.47;83.74;98406.56;5002348;28;20245;-61
2023/04/02 08:39:38;;;;;;;1.97;0.80;;;;;;;11.29;81.08;98406.69;5005422;28;20242;-61
2023/04/02 08:42:17;;;;;;;0.60;0.60;;;;;;;11.18;81.53;98408.63;5000623;28;20234;-61
2023/04/02 08:44:56;;;;;;;0.83;0.50;;;;;;;10.74;84.93;98422.69;5005494;28;20703;-61
2023/04/02 08:47:25;;;;;;;0.40;0.40;;;;;;;11.08;82.94;98421.03;5002959;28;20242;-61
2023/04/02 08:49:58;;;;;;;1.67;0.60;;;;;;;10.91;83.74;98427.97;5004382;28;20233;-62
2023/04/02 08:52:28;;;;;;;0.80;0.43;;;;;;;10.90;85.29;98424.56;5002190;28;20245;-62
2023/04/02 08:54:56;;;;;;;2.23;0.83;;;;;;;10.96;88.07;98430.13;5004276;28;20235;-62
2023/04/02 08:57:35;;;;;;;1.83;0.70;;;;;;;11.05;85.13;98434.41;5002647;28;20258;-61
2023/04/02 09:00:08;;;;;;;4.27;2.20;;;;;;;11.42;84.91;98443.63;5002967;28;20242;-61
2023/04/02 09:02:40;;;;;;;1.47;0.90;;;;;;;11.51;81.48;98442.66;5005450;28;20242;-61
2023/04/02 09:05:18;;;;;;;1.13;0.43;;;;;;;11.60;80.94;98448.72;5003113;28;20285;-61
2023/04/02 09:07:46;;;;;;;3.77;0.60;;;;;;;11.55;80.37;98448.38;5005127;28;20309;-61
2023/04/02 09:10:15;;;;;;;1.07;0.53;;;;;;;11.51;82.98;98444.47;5003276;28;20234;-61
2023/04/02 09:12:45;;;;;;;1.87;0.90;;;;;;;11.73;82.33;98456.06;5006265;28;20584;-62
2023/04/02 09:15:23;;;;;;;2.00;0.67;;;;;;;11.51;81.82;98460.94;5001585;28;20590;-61
2023/04/02 09:17:56;;;;;;;2.03;0.70;;;;;;;11.50;84.01;98458.50;5004640;28;20244;-61
2023/04/02 09:20:26;;;;;;;1.20;0.90;;;;;;;11.35;83.88;98466.97;5002650;28;20230;-61
2023/04/02 09:22:55;;;;;;;1.07;0.70;;;;;;;11.17;86.92;98467.06;5003212;28;20254;-62
2023/04/02 09:25:25;;;;;;;1.63;0.90;;;;;;;10.90;85.74;98470.72;5001342;28;20234;-61
2023/04/02 09:27:55;;;;;;;1.53;0.97;;;;;;;10.87;87.09;98471.88;5008967;28;20250;-61
2023/04/02 09:30:33;;;;;;;3.03;1.43;;;;;;;10.78;88.40;98472.81;5006363;28;20235;-61
2023/04/02 09:33:02;;;;;;;1.53;1.00;;;;;;;10.85;89.79;98471.22;5007096;28;20235;-61
2023/04/02 09:35:32;;;;;;;1.33;0.50;;;;;;;10.96;83.93;98485.78;5009125;28;20608;-62
2023/04/02 09:38:20;;;;;;;1.90;0.47;;;;;;;10.72;85.46;98481.25;5011005;28;20238;-62
2023/04/02 09:40:50;;;;;;;1.17;0.60;;;;;;;10.89;88.81;98484.75;5006753;28;20589;-62
2023/04/02 09:43:21;;;;;;;1.60;0.60;;;;;;;11.16;89.05;98493.38;5006986;28;20317;-62
2023/04/02 09:46:02;;;;;;;1.70;0.90;;;;;;;11.42;82.38;98498.50;5007607;28;20227;-61
2023/04/02 09:48:32;;;;;;;1.20;0.83;;;;;;;11.54;81.54;98495.59;5004164;28;20683;-61
2023/04/02 09:51:13;;;;;;;1.20;0.70;;;;;;;11.74;83.08;98503.94;5005945;28;20663;-61
2023/04/02 09:53:40;;;;;;;1.20;0.70;;;;;;;12.10;80.90;98506.31;5009395;28;20247;-61
2023/04/02 09:56:12;;;;;;;1.90;0.50;;;;;;;12.47;76.72;98510.22;5004835;28;20230;-61
2023/04/02 09:58:39;;;;;;;1.33;0.50;;;;;;;12.54;73.61;98519.03;5009119;28;20643;-62
2023/04/02 10:01:10;;;;;;;1.43;0.70;;;;;;;12.52;75.37;98522.78;5004082;28;20620;-61
2023/04/02 10:03:36;;;;;;;15.07;8.70;;;;;;;11.63;77.26;98520.78;5010997;28;20594;-61
2023/04/02 10:06:07;;;;;;;1.40;1.10;;;;;;;12.22;74.61;98518.09;5005485;28;20279;-62
2023/04/02 10:08:35;;;;;;;2.60;0.57;;;;;;;12.31;75.49;98521.50;5011098;28;20239;-61
2023/04/02 10:11:03;;;;;;;0.83;0.80;;;;;;;12.18;78.43;98526.44;5005311;28;20242;-61
2023/04/02 10:13:34;;;;;;;1.90;0.87;;;;;;;12.07;75.49;98530.19;5007814;28;20239;-61
2023/04/02 10:16:06;;;;;;;122.33;56.80;;;;;;;11.92;76.95;98538.63;5003761;28;20285;-61
2023/04/02 10:18:46;;;;;;;2.03;1.57;;;;;;;12.21;74.96;98531.31;5008448;28;20236;-61
2023/04/02 10:21:18;;;;;;;2.00;1.00;;;;;;;12.05;77.59;98532.13;5007202;28;20916;-61
2023/04/02 10:23:44;;;;;;;1.50;0.90;;;;;;;12.23;81.49;98540.66;5008835;28;20228;-61
2023/04/02 10:26:33;;;;;;;1.37;0.90;;;;;;;12.60;77.74;98537.69;5005963;28;20228;-62
2023/04/02 10:29:14;;;;;;;1.63;1.10;;;;;;;12.92;74.85;98544.66;5004588;28;20229;-61
2023/04/02 10:31:51;;;;;;;1.27;0.80;;;;;;;12.83;74.35;98545.66;5007492;28;20568;-62
2023/04/02 10:34:23;;;;;;;1.27;0.77;;;;;;;12.91;72.40;98552.66;5009370;28;20294;-61
2023/04/02 10:36:54;;;;;;;1.30;0.80;;;;;;;12.89;73.25;98546.78;5006999;28;20225;-61
2023/04/02 10:39:30;;;;;;;1.03;0.50;;;;;;;13.11;70.91;98555.75;5004642;28;20236;-61
2023/04/02 10:42:03;;;;;;;0.40;0.40;;;;;;;13.09;70.08;98555.09;4997016;28;20228;-62
2023/04/02 10:44:43;;;;;;;0.97;0.70;;;;;;;12.92;71.37;98554.31;5006593;28;20255;-62
2023/04/02 10:47:21;;;;;;;0.80;0.57;;;;;;;13.11;73.05;98558.34;5002520;28;20240;-62
2023/04/02 10:49:53;;;;;;;0.57;0.57;;;;;;;13.36;73.19;98566.94;5006509;28;20228;-61
2023/04/02 10:52:26;;;;;;;0.90;0.47;;;;;;;13.56;74.30;98559.50;5003163;28;20239;-61
2023/04/02 10:54:56;;;;;;;0.90;0.60;;;;;;;13.65;73.75;98562.91;5007876;28;20236;-63
2023/04/02 10:57:30;;;;;;;0.60;0.60;;;;;;;13.83;71.71;98567.88;5006863;28;20238;-62
2023/04/02 11:00:06;;;;;;;0.90;0.60;;;;;;;14.10;72.78;98570.16;5004610;28;20239;-62
2023/04/02 11:02:38;;;;;;;0.80;0.60;;;;;;;14.05;67.28;98572.50;5004953;28;20224;-62
2023/04/02 11:05:14;;;;;;;0.73;0.50;;;;;;;13.92;69.44;98573.09;5003664;28;20225;-62
2023/04/02 11:07:53;;;;;;;0.60;0.40;;;;;;;13.89;63.15;98571.59;5006469;28;20739;-61
2023/04/02 11:10:21;;;;;;;0.70;0.50;;;;;;;13.89;70.55;98571.59;5006561;28;20226;-62
2023/04/02 11:12:54;;;;;;;0.57;0.43;;;;;;;14.10;62.98;98576.25;5006307;28;20240;-61
2023/04/02 11:15:21;;;;;;;0.83;0.47;;;;;;;13.92;64.46;98575.72;5006055;28;20237;-62
2023/04/02 11:17:48;;;;;;;1.67;0.90;;;;;;;13.46;66.54;98581.69;5006938;28;20647;-61
2023/04/02 11:21:04;;;;;;;0.67;0.60;;;;;;;13.78;65.42;98575.44;5003726;28;20225;-62
2023/04/02 11:23:39;;;;;;;0.73;0.40;;;;;;;14.06;64.06;98579.38;5001933;28;20257;-62
2023/04/02 11:26:31;;;;;;;0.80;0.40;;;;;;;13.86;65.28;98591.16;5003674;28;20280;-61
2023/04/02 11:29:06;;;;;;;2.83;1.47;;;;;;;13.50;68.65;98588.22;5005030;28;20306;-61
2023/04/02 11:31:33;;;;;;;3.13;0.70;;;;;;;13.97;66.55;98595.16;5006286;28;20292;-61
2023/04/02 11:34:00;;;;;;;1.83;1.03;;;;;;;13.69;67.41;98597.47;5006756;28;20229;-62
2023/04/02 11:36:59;;;;;;;0.70;0.50;;;;;;;13.52;68.07;98602.78;5006303;28;20232;-60
2023/04/02 11:39:55;;;;;;;0.60;0.57;;;;;;;13.52;65.86;98607.22;5003271;28;20233;-60
2023/04/02 11:42:30;;;;;;;0.70;0.60;;;;;;;13.10;68.28;98603.91;5004486;28;20256;-61
2023/04/02 11:45:01;;;;;;;0.87;0.50;;;;;;;13.09;71.80;98603.06;5004691;28;20246;-61
2023/04/02 11:47:29;;;;;;;1.27;0.67;;;;;;;13.28;68.47;98609.72;5007521;28;20271;-61
2023/04/02 11:50:05;;;;;;;1.10;0.60;;;;;;;12.96;68.89;98608.00;5005240;28;20722;-61
2023/04/02 11:52:51;;;;;;;0.40;0.40;;;;;;;12.97;71.50;98607.03;5003288;28;20236;-61
2023/04/02 11:55:24;;;;;;;1.30;0.60;;;;;;;13.26;70.10;98613.50;4992614;28;20224;-62
2023/04/02 11:58:19;;;;;;;0.77;0.50;;;;;;;13.22;67.59;98613.03;5006325;28;20236;-61
2023/04/02 12:01:30;;;;;;;1.03;0.63;;;;;;;13.51;68.08;98623.94;5003189;28;20272;-61
2023/04/02 12:04:24;;;;;;;1.83;1.30;;;;;;;13.38;67.66;98622.66;5002393;28;20234;-61